Terminal Aerodrome Forecast
Issued by NWS Pueblo, CO

Home | Current Version | Previous Version | Text Only | Print | Product List | Glossary On
Versions: 1 2 3 4 5 6 7 8 9 10 11 12 13 14 15 16 17 18 19 20 21 22 23 24 25 26 27 28 29 30 31 32 33 34 35 36 37 38 39 40 41 42 43 44 45 46 47 48 49 50
000
FTUS45 KPUB 231133
TAFALS
TAF
KALS 231133Z 2312/2412 VRB03KT P6SM SCT100 SCT200
     FM231800 17008KT P6SM SCT080
     FM232200 19010KT P6SM VCTS SCT080CB BKN150
      TEMPO 2322/2402 VRB20G30KT BKN080CB
     FM240200 09010KT P6SM SCT100 BKN200=

USA.gov is the U.S. government's official web portal to all federal, state and local government web resources and services.